^^
Station Historical Data
Daily Summary for May 12, 2017 Units:  Both    English   Metric
« Previous Day
Next Day »
Daily Weekly Monthly Yearly Custom
  High: Low: Average:
Temperature: 78.8 °F /  26 °C 50.2 °F /  10.1 °C 63.2 °F /  17.3 °C
Dew Point: 45.1 °F /  7.3 °C 34.9 °F /  1.6 °C 39.9 °F /  4.4 °C
Humidity: 72% 21% 46%
Wind Speed: 6.0mph /  9.7km/h - 0.6mph /  1km/h
Wind Gust: 9.0mph /  14.5km/h - -
Wind- - SSE
Pressure: 30.08 in /  1018.5 hPa 29.98 in /  1015.1 hPa -
Precipitation: 0.00 in /  0 mm    
Historical Graphs
 
 
Tabular Data for May 12, 2017
Time Temperature Dew Point Pressure Wind Wind Speed Wind Gust Humidity Rainfall Rate (Hourly) solar Conditions
00:01 53.1 °F /  11.7 °C 42.1 °F /  5.6 °C 30.04in /  1017.2hPa East 2.0mph /  3.2km/h 5.0mph /  8km/h 66% 0.00in /  0mm 0.0 W/m2
00:07 53.1 °F /  11.7 °C 42.1 °F /  5.6 °C 30.05in /  1017.5hPa ENE 0.9mph /  1.4km/h 5.0mph /  8km/h 66% 0.00in /  0mm 0.0 W/m2
00:13 53.1 °F /  11.7 °C 42.1 °F /  5.6 °C 30.04in /  1017.2hPa Calm   2.0mph /  3.2km/h 66% 0.00in /  0mm 0.0 W/m2
00:20 53.1 °F /  11.7 °C 42.1 °F /  5.6 °C 30.04in /  1017.2hPa Calm   3.0mph /  4.8km/h 66% 0.00in /  0mm 0.0 W/m2
00:26 53.1 °F /  11.7 °C 42.1 °F /  5.6 °C 30.04in /  1017.2hPa ESE 2.0mph /  3.2km/h 4.0mph /  6.4km/h 66% 0.00in /  0mm 0.0 W/m2
00:32 53.1 °F /  11.7 °C 42.1 °F /  5.6 °C 30.04in /  1017.2hPa SE 2.0mph /  3.2km/h 3.0mph /  4.8km/h 66% 0.00in /  0mm 0.0 W/m2
00:38 53.2 °F /  11.8 °C 42.3 °F /  5.7 °C 30.04in /  1017.2hPa Calm   2.0mph /  3.2km/h 66% 0.00in /  0mm 0.0 W/m2
00:44 53.2 °F /  11.8 °C 42.3 °F /  5.7 °C 30.04in /  1017.2hPa Calm   1.0mph /  1.6km/h 66% 0.00in /  0mm 0.0 W/m2
00:50 53.2 °F /  11.8 °C 42.3 °F /  5.7 °C 30.04in /  1017.2hPa ESE 0.9mph /  1.4km/h 1.0mph /  1.6km/h 66% 0.00in /  0mm 0.0 W/m2
00:58 53.2 °F /  11.8 °C 42.3 °F /  5.7 °C 30.04in /  1017.2hPa Calm   4.0mph /  6.4km/h 66% 0.00in /  0mm 0.0 W/m2
01:04 53.1 °F /  11.7 °C 42.1 °F /  5.6 °C 30.04in /  1017.2hPa Calm   4.0mph /  6.4km/h 66% 0.00in /  0mm 0.0 W/m2
01:11 53.1 °F /  11.7 °C 42.1 °F /  5.6 °C 30.04in /  1017.2hPa Calm   2.0mph /  3.2km/h 66% 0.00in /  0mm 0.0 W/m2
01:17 52.9 °F /  11.6 °C 41.9 °F /  5.5 °C 30.04in /  1017.2hPa Calm   1.0mph /  1.6km/h 66% 0.00in /  0mm 0.0 W/m2
01:23 52.9 °F /  11.6 °C 41.9 °F /  5.5 °C 30.04in /  1017.2hPa SE 2.0mph /  3.2km/h 3.0mph /  4.8km/h 66% 0.00in /  0mm 0.0 W/m2
01:29 52.3 °F /  11.3 °C 41.7 °F /  5.4 °C 30.04in /  1017.2hPa Calm   3.0mph /  4.8km/h 67% 0.00in /  0mm 0.0 W/m2
01:35 52.3 °F /  11.3 °C 41.7 °F /  5.4 °C 30.03in /  1016.8hPa Calm   2.0mph /  3.2km/h 67% 0.00in /  0mm 0.0 W/m2
01:41 52.2 °F /  11.2 °C 41.5 °F /  5.3 °C 30.03in /  1016.8hPa ESE 2.0mph /  3.2km/h 4.0mph /  6.4km/h 67% 0.00in /  0mm 0.0 W/m2
01:47 52.3 °F /  11.3 °C 41.4 °F /  5.2 °C 30.03in /  1016.8hPa Calm   1.0mph /  1.6km/h 66% 0.00in /  0mm 0.0 W/m2
01:54 52.5 °F /  11.4 °C 41.5 °F /  5.3 °C 30.03in /  1016.8hPa SE 2.0mph /  3.2km/h 2.0mph /  3.2km/h 66% 0.00in /  0mm 0.0 W/m2
02:00 52.5 °F /  11.4 °C 41.5 °F /  5.3 °C 30.03in /  1016.8hPa Calm     66% 0.00in /  0mm 0.0 W/m2
02:06 52.5 °F /  11.4 °C 41.5 °F /  5.3 °C 30.03in /  1016.8hPa Calm   1.0mph /  1.6km/h 66% 0.00in /  0mm 0.0 W/m2
02:12 52.5 °F /  11.4 °C 41.5 °F /  5.3 °C 30.03in /  1016.8hPa Calm     66% 0.00in /  0mm 0.0 W/m2
02:18 52.5 °F /  11.4 °C 41.5 °F /  5.3 °C 30.03in /  1016.8hPa SE 0.9mph /  1.4km/h 1.0mph /  1.6km/h 66% 0.00in /  0mm 0.0 W/m2
02:24 52.3 °F /  11.3 °C 41.4 °F /  5.2 °C 30.03in /  1016.8hPa SE 2.0mph /  3.2km/h 3.0mph /  4.8km/h 66% 0.00in /  0mm 0.0 W/m2
02:30 52.2 °F /  11.2 °C 41.2 °F /  5.1 °C 30.02in /  1016.5hPa Calm   2.0mph /  3.2km/h 66% 0.00in /  0mm 0.0 W/m2
02:36 52.0 °F /  11.1 °C 41.0 °F /  5 °C 30.02in /  1016.5hPa Calm   1.0mph /  1.6km/h 66% 0.00in /  0mm 0.0 W/m2
02:42 51.8 °F /  11 °C 41.2 °F /  5.1 °C 30.02in /  1016.5hPa SE 0.9mph /  1.4km/h 1.0mph /  1.6km/h 67% 0.00in /  0mm 0.0 W/m2
02:48 51.6 °F /  10.9 °C 41.0 °F /  5 °C 30.02in /  1016.5hPa Calm     67% 0.00in /  0mm 0.0 W/m2
02:54 51.4 °F /  10.8 °C 40.8 °F /  4.9 °C 30.02in /  1016.5hPa Calm     67% 0.00in /  0mm 0.0 W/m2
03:00 51.1 °F /  10.6 °C 40.8 °F /  4.9 °C 30.02in /  1016.5hPa Calm     68% 0.00in /  0mm 0.0 W/m2
03:06 50.9 °F /  10.5 °C 41.2 °F /  5.1 °C 30.02in /  1016.5hPa Calm     69% 0.00in /  0mm 0.0 W/m2
03:12 50.5 °F /  10.3 °C 40.8 °F /  4.9 °C 30.02in /  1016.5hPa Calm     69% 0.00in /  0mm 0.0 W/m2
03:18 50.4 °F /  10.2 °C 40.6 °F /  4.8 °C 30.02in /  1016.5hPa Calm     69% 0.00in /  0mm 0.0 W/m2
03:24 50.4 °F /  10.2 °C 40.6 °F /  4.8 °C 30.02in /  1016.5hPa Calm   1.0mph /  1.6km/h 69% 0.00in /  0mm 0.0 W/m2
03:30 50.2 °F /  10.1 °C 40.5 °F /  4.7 °C 30.02in /  1016.5hPa NE 2.0mph /  3.2km/h 2.0mph /  3.2km/h 69% 0.00in /  0mm 0.0 W/m2
03:36 50.4 °F /  10.2 °C 40.6 °F /  4.8 °C 30.02in /  1016.5hPa Calm   1.0mph /  1.6km/h 69% 0.00in /  0mm 0.0 W/m2
03:42 50.4 °F /  10.2 °C 40.6 °F /  4.8 °C 30.02in /  1016.5hPa Calm   3.0mph /  4.8km/h 69% 0.00in /  0mm 0.0 W/m2
03:48 50.5 °F /  10.3 °C 40.5 °F /  4.7 °C 30.03in /  1016.8hPa ESE 2.9mph /  4.7km/h 3.0mph /  4.8km/h 68% 0.00in /  0mm 0.0 W/m2
03:54 50.5 °F /  10.3 °C 40.5 °F /  4.7 °C 30.03in /  1016.8hPa Calm     68% 0.00in /  0mm 0.0 W/m2
04:00 50.5 °F /  10.3 °C 40.5 °F /  4.7 °C 30.03in /  1016.8hPa Calm   3.0mph /  4.8km/h 68% 0.00in /  0mm 0.0 W/m2
04:06 50.5 °F /  10.3 °C 40.5 °F /  4.7 °C 30.02in /  1016.5hPa ESE 2.0mph /  3.2km/h 6.0mph /  9.7km/h 68% 0.00in /  0mm 0.0 W/m2
04:12 50.5 °F /  10.3 °C 40.5 °F /  4.7 °C 30.03in /  1016.8hPa Calm   5.0mph /  8km/h 68% 0.00in /  0mm 0.0 W/m2
04:18 50.5 °F /  10.3 °C 40.5 °F /  4.7 °C 30.03in /  1016.8hPa Calm   1.0mph /  1.6km/h 68% 0.00in /  0mm 0.0 W/m2
04:24 50.5 °F /  10.3 °C 40.5 °F /  4.7 °C 30.03in /  1016.8hPa SE 0.9mph /  1.4km/h 4.0mph /  6.4km/h 68% 0.00in /  0mm 0.0 W/m2
04:30 51.1 °F /  10.6 °C 40.5 °F /  4.7 °C 30.03in /  1016.8hPa ESE 2.9mph /  4.7km/h 6.0mph /  9.7km/h 67% 0.00in /  0mm 0.0 W/m2
04:36 51.3 °F /  10.7 °C 40.3 °F /  4.6 °C 30.03in /  1016.8hPa Calm   4.0mph /  6.4km/h 66% 0.00in /  0mm 0.0 W/m2
04:42 51.4 °F /  10.8 °C 40.5 °F /  4.7 °C 30.03in /  1016.8hPa Calm   4.0mph /  6.4km/h 66% 0.00in /  0mm 0.0 W/m2
04:48 51.6 °F /  10.9 °C 40.6 °F /  4.8 °C 30.03in /  1016.8hPa Calm   1.0mph /  1.6km/h 66% 0.00in /  0mm 0.0 W/m2
04:54 51.4 °F /  10.8 °C 40.5 °F /  4.7 °C 30.03in /  1016.8hPa East 2.0mph /  3.2km/h 2.0mph /  3.2km/h 66% 0.00in /  0mm 0.0 W/m2
05:00 51.4 °F /  10.8 °C 40.1 °F /  4.5 °C 30.04in /  1017.2hPa East 0.9mph /  1.4km/h 5.0mph /  8km/h 65% 0.00in /  0mm 0.0 W/m2
05:06 51.6 °F /  10.9 °C 40.6 °F /  4.8 °C 30.04in /  1017.2hPa NNE 4.0mph /  6.4km/h 8.0mph /  12.9km/h 66% 0.00in /  0mm 0.0 W/m2
05:12 52.0 °F /  11.1 °C 40.6 °F /  4.8 °C 30.04in /  1017.2hPa Calm   3.0mph /  4.8km/h 65% 0.00in /  0mm 0.0 W/m2
05:18 52.2 °F /  11.2 °C 40.8 °F /  4.9 °C 30.04in /  1017.2hPa Calm   2.0mph /  3.2km/h 65% 0.00in /  0mm 0.0 W/m2
05:24 52.3 °F /  11.3 °C 41.0 °F /  5 °C 30.04in /  1017.2hPa NE 2.0mph /  3.2km/h 7.0mph /  11.3km/h 65% 0.00in /  0mm 0.0 W/m2
05:30 52.5 °F /  11.4 °C 41.2 °F /  5.1 °C 30.04in /  1017.2hPa Calm   4.0mph /  6.4km/h 65% 0.00in /  0mm 0.0 W/m2
05:36 52.9 °F /  11.6 °C 41.4 °F /  5.2 °C 30.04in /  1017.2hPa Calm   2.0mph /  3.2km/h 65% 0.00in /  0mm 0.0 W/m2
05:42 52.7 °F /  11.5 °C 41.7 °F /  5.4 °C 30.04in /  1017.2hPa Calm   3.0mph /  4.8km/h 66% 0.00in /  0mm 0.0 W/m2
05:48 52.7 °F /  11.5 °C 41.7 °F /  5.4 °C 30.05in /  1017.5hPa Calm   3.0mph /  4.8km/h 66% 0.00in /  0mm 0.0 W/m2
05:54 52.7 °F /  11.5 °C 41.7 °F /  5.4 °C 30.04in /  1017.2hPa East 0.9mph /  1.4km/h 2.0mph /  3.2km/h 66% 0.00in /  0mm 0.0 W/m2
06:00 52.5 °F /  11.4 °C 41.5 °F /  5.3 °C 30.04in /  1017.2hPa Calm   1.0mph /  1.6km/h 66% 0.00in /  0mm 0.0 W/m2
06:06 52.5 °F /  11.4 °C 41.5 °F /  5.3 °C 30.05in /  1017.5hPa Calm   2.0mph /  3.2km/h 66% 0.00in /  0mm 0.0 W/m2
06:12 52.3 °F /  11.3 °C 41.4 °F /  5.2 °C 30.05in /  1017.5hPa Calm   3.0mph /  4.8km/h 66% 0.00in /  0mm 0.0 W/m2
06:18 52.2 °F /  11.2 °C 41.5 °F /  5.3 °C 30.05in /  1017.5hPa SSE 0.9mph /  1.4km/h 2.0mph /  3.2km/h 67% 0.00in /  0mm 5.0 W/m2
06:24 52.0 °F /  11.1 °C 41.4 °F /  5.2 °C 30.05in /  1017.5hPa Calm     67% 0.00in /  0mm 7.0 W/m2
06:30 51.8 °F /  11 °C 41.5 °F /  5.3 °C 30.05in /  1017.5hPa Calm     68% 0.00in /  0mm 9.0 W/m2
06:36 51.6 °F /  10.9 °C 41.7 °F /  5.4 °C 30.05in /  1017.5hPa Calm     69% 0.00in /  0mm 11.0 W/m2
06:42 51.4 °F /  10.8 °C 41.5 °F /  5.3 °C 30.05in /  1017.5hPa Calm     69% 0.00in /  0mm 12.0 W/m2
06:48 51.3 °F /  10.7 °C 41.9 °F /  5.5 °C 30.05in /  1017.5hPa Calm     70% 0.00in /  0mm 14.0 W/m2
06:54 51.1 °F /  10.6 °C 41.2 °F /  5.1 °C 30.06in /  1017.8hPa Calm   1.0mph /  1.6km/h 69% 0.00in /  0mm 16.0 W/m2
07:00 51.1 °F /  10.6 °C 41.7 °F /  5.4 °C 30.06in /  1017.8hPa Calm     70% 0.00in /  0mm 16.0 W/m2
07:06 51.1 °F /  10.6 °C 42.1 °F /  5.6 °C 30.06in /  1017.8hPa Calm     71% 0.00in /  0mm 18.0 W/m2
07:12 51.1 °F /  10.6 °C 42.1 °F /  5.6 °C 30.06in /  1017.8hPa Calm     71% 0.00in /  0mm 19.0 W/m2
07:18 51.1 °F /  10.6 °C 42.4 °F /  5.8 °C 30.06in /  1017.8hPa Calm     72% 0.00in /  0mm 21.0 W/m2
07:24 51.4 °F /  10.8 °C 42.4 °F /  5.8 °C 30.06in /  1017.8hPa SSE 2.0mph /  3.2km/h 3.0mph /  4.8km/h 71% 0.00in /  0mm 21.0 W/m2
07:30 52.0 °F /  11.1 °C 42.4 °F /  5.8 °C 30.06in /  1017.8hPa Calm   3.0mph /  4.8km/h 70% 0.00in /  0mm 23.0 W/m2
07:36 52.5 °F /  11.4 °C 43.0 °F /  6.1 °C 30.07in /  1018.2hPa SW 0.9mph /  1.4km/h 2.0mph /  3.2km/h 70% 0.00in /  0mm 23.0 W/m2
07:42 53.2 °F /  11.8 °C 43.3 °F /  6.3 °C 30.07in /  1018.2hPa Calm   1.0mph /  1.6km/h 69% 0.00in /  0mm 25.0 W/m2
07:48 54.1 °F /  12.3 °C 43.9 °F /  6.6 °C 30.07in /  1018.2hPa Calm   1.0mph /  1.6km/h 68% 0.00in /  0mm 26.0 W/m2
07:54 55.0 °F /  12.8 °C 43.5 °F /  6.4 °C 30.07in /  1018.2hPa Calm     65% 0.00in /  0mm 26.0 W/m2
08:00 55.8 °F /  13.2 °C 44.2 °F /  6.8 °C 30.07in /  1018.2hPa Calm     65% 0.00in /  0mm 26.0 W/m2
08:06 56.8 °F /  13.8 °C 43.5 °F /  6.4 °C 30.07in /  1018.2hPa Calm     61% 0.00in /  0mm 28.0 W/m2
08:12 57.9 °F /  14.4 °C 43.2 °F /  6.2 °C 30.07in /  1018.2hPa Calm     58% 0.00in /  0mm 325.0 W/m2
08:19 59.2 °F /  15.1 °C 44.4 °F /  6.9 °C 30.07in /  1018.2hPa Calm     58% 0.00in /  0mm 408.0 W/m2
08:24 60.4 °F /  15.8 °C 43.7 °F /  6.5 °C 30.07in /  1018.2hPa Calm     54% 0.00in /  0mm 425.0 W/m2
08:30 61.7 °F /  16.5 °C 44.4 °F /  6.9 °C 30.07in /  1018.2hPa Calm     53% 0.00in /  0mm 446.0 W/m2
08:36 62.8 °F /  17.1 °C 43.9 °F /  6.6 °C 30.08in /  1018.5hPa Calm   2.0mph /  3.2km/h 50% 0.00in /  0mm 466.0 W/m2
08:42 64.2 °F /  17.9 °C 44.6 °F /  7 °C 30.07in /  1018.2hPa Calm     49% 0.00in /  0mm 483.0 W/m2
08:48 65.7 °F /  18.7 °C 45.0 °F /  7.2 °C 30.08in /  1018.5hPa Calm     47% 0.00in /  0mm 504.0 W/m2
08:54 66.6 °F /  19.2 °C 45.1 °F /  7.3 °C 30.07in /  1018.2hPa Calm   1.0mph /  1.6km/h 46% 0.00in /  0mm 522.0 W/m2
09:00 67.5 °F /  19.7 °C 44.8 °F /  7.1 °C 30.08in /  1018.5hPa Calm   1.0mph /  1.6km/h 44% 0.00in /  0mm 538.0 W/m2
09:06 68.5 °F /  20.3 °C 43.3 °F /  6.3 °C 30.08in /  1018.5hPa Calm   1.0mph /  1.6km/h 40% 0.00in /  0mm 557.0 W/m2
09:12 70.0 °F /  21.1 °C 43.2 °F /  6.2 °C 30.08in /  1018.5hPa Calm   4.0mph /  6.4km/h 38% 0.00in /  0mm 573.0 W/m2
09:18 71.2 °F /  21.8 °C 43.7 °F /  6.5 °C 30.08in /  1018.5hPa NE 2.9mph /  4.7km/h 5.0mph /  8km/h 37% 0.00in /  0mm 589.0 W/m2
09:24 71.8 °F /  22.1 °C 43.3 °F /  6.3 °C 30.08in /  1018.5hPa SE 0.9mph /  1.4km/h 2.0mph /  3.2km/h 36% 0.00in /  0mm 601.0 W/m2
09:30 72.3 °F /  22.4 °C 43.2 °F /  6.2 °C 30.08in /  1018.5hPa Calm   4.0mph /  6.4km/h 35% 0.00in /  0mm 617.0 W/m2
09:36 73.2 °F /  22.9 °C 43.9 °F /  6.6 °C 30.08in /  1018.5hPa SE 0.9mph /  1.4km/h 3.0mph /  4.8km/h 35% 0.00in /  0mm 629.0 W/m2
09:42 73.6 °F /  23.1 °C 42.6 °F /  5.9 °C 30.08in /  1018.5hPa East 2.0mph /  3.2km/h 3.0mph /  4.8km/h 33% 0.00in /  0mm 642.0 W/m2
09:48 74.1 °F /  23.4 °C 42.4 °F /  5.8 °C 30.08in /  1018.5hPa NNE 0.9mph /  1.4km/h 2.0mph /  3.2km/h 32% 0.00in /  0mm 654.0 W/m2
09:54 74.7 °F /  23.7 °C 42.8 °F /  6 °C 30.07in /  1018.2hPa Calm   1.0mph /  1.6km/h 32% 0.00in /  0mm 668.0 W/m2
09:56 74.5 °F /  23.6 °C 41.9 °F /  5.5 °C 30.07in /  1018.2hPa Calm   4.0mph /  6.4km/h 31% 0.00in /  0mm 670.0 W/m2
10:02 74.5 °F /  23.6 °C 42.6 °F /  5.9 °C 30.07in /  1018.2hPa Calm   2.0mph /  3.2km/h 32% 0.00in /  0mm 680.0 W/m2
10:09 74.5 °F /  23.6 °C 41.9 °F /  5.5 °C 30.07in /  1018.2hPa NE 4.0mph /  6.4km/h 4.0mph /  6.4km/h 31% 0.00in /  0mm 693.0 W/m2
10:15 74.8 °F /  23.8 °C 41.4 °F /  5.2 °C 30.07in /  1018.2hPa NNE 2.9mph /  4.7km/h 4.0mph /  6.4km/h 30% 0.00in /  0mm 701.0 W/m2
10:21 75.2 °F /  24 °C 43.3 °F /  6.3 °C 30.07in /  1018.2hPa Calm   2.0mph /  3.2km/h 32% 0.00in /  0mm 712.0 W/m2
10:27 75.2 °F /  24 °C 41.7 °F /  5.4 °C 30.06in /  1017.8hPa Calm   4.0mph /  6.4km/h 30% 0.00in /  0mm 721.0 W/m2
10:33 75.4 °F /  24.1 °C 41.0 °F /  5 °C 30.07in /  1018.2hPa North 4.0mph /  6.4km/h 7.0mph /  11.3km/h 29% 0.00in /  0mm 731.0 W/m2
10:39 75.7 °F /  24.3 °C 40.3 °F /  4.6 °C 30.06in /  1017.8hPa NW 2.9mph /  4.7km/h 5.0mph /  8km/h 28% 0.00in /  0mm 733.0 W/m2
10:45 75.9 °F /  24.4 °C 39.6 °F /  4.2 °C 30.06in /  1017.8hPa Calm   1.0mph /  1.6km/h 27% 0.00in /  0mm 735.0 W/m2
10:51 75.9 °F /  24.4 °C 38.7 °F /  3.7 °C 30.06in /  1017.8hPa Calm   3.0mph /  4.8km/h 26% 0.00in /  0mm 742.0 W/m2
10:57 75.7 °F /  24.3 °C 39.4 °F /  4.1 °C 30.06in /  1017.8hPa NW 2.0mph /  3.2km/h 4.0mph /  6.4km/h 27% 0.00in /  0mm 752.0 W/m2
11:03 75.7 °F /  24.3 °C 39.4 °F /  4.1 °C 30.06in /  1017.8hPa Calm   1.0mph /  1.6km/h 27% 0.00in /  0mm 756.0 W/m2
11:09 75.9 °F /  24.4 °C 38.7 °F /  3.7 °C 30.05in /  1017.5hPa WSW 2.0mph /  3.2km/h 6.0mph /  9.7km/h 26% 0.00in /  0mm 765.0 W/m2
11:15 75.7 °F /  24.3 °C 38.5 °F /  3.6 °C 30.05in /  1017.5hPa West 2.0mph /  3.2km/h 5.0mph /  8km/h 26% 0.00in /  0mm 765.0 W/m2
11:21 75.7 °F /  24.3 °C 39.4 °F /  4.1 °C 30.05in /  1017.5hPa Calm   4.0mph /  6.4km/h 27% 0.00in /  0mm 763.0 W/m2
11:27 75.7 °F /  24.3 °C 39.4 °F /  4.1 °C 30.05in /  1017.5hPa Calm   3.0mph /  4.8km/h 27% 0.00in /  0mm 773.0 W/m2
11:33 75.9 °F /  24.4 °C 37.6 °F /  3.1 °C 30.04in /  1017.2hPa West 4.9mph /  7.9km/h 7.0mph /  11.3km/h 25% 0.00in /  0mm 773.0 W/m2
11:39 75.6 °F /  24.2 °C 38.3 °F /  3.5 °C 30.04in /  1017.2hPa WSW 2.9mph /  4.7km/h 4.0mph /  6.4km/h 26% 0.00in /  0mm 779.0 W/m2
11:45 74.8 °F /  23.8 °C 37.6 °F /  3.1 °C 30.03in /  1016.8hPa WSW 0.9mph /  1.4km/h 3.0mph /  4.8km/h 26% 0.00in /  0mm 768.0 W/m2
11:51 75.0 °F /  23.9 °C 39.7 °F /  4.3 °C 30.03in /  1016.8hPa West 0.9mph /  1.4km/h 6.0mph /  9.7km/h 28% 0.00in /  0mm 763.0 W/m2
11:58 75.2 °F /  24 °C 37.9 °F /  3.3 °C 30.03in /  1016.8hPa Calm   2.0mph /  3.2km/h 26% 0.00in /  0mm 761.0 W/m2
12:04 75.4 °F /  24.1 °C 38.1 °F /  3.4 °C 30.03in /  1016.8hPa South 2.9mph /  4.7km/h 3.0mph /  4.8km/h 26% 0.00in /  0mm 766.0 W/m2
12:10 75.6 °F /  24.2 °C 36.3 °F /  2.4 °C 30.03in /  1016.8hPa West 2.9mph /  4.7km/h 5.0mph /  8km/h 24% 0.00in /  0mm 759.0 W/m2
12:16 75.2 °F /  24 °C 37.0 °F /  2.8 °C 30.03in /  1016.8hPa WNW 0.9mph /  1.4km/h 2.0mph /  3.2km/h 25% 0.00in /  0mm 759.0 W/m2
12:22 75.7 °F /  24.3 °C 38.5 °F /  3.6 °C 30.03in /  1016.8hPa SW 2.0mph /  3.2km/h 3.0mph /  4.8km/h 26% 0.00in /  0mm 754.0 W/m2
12:28 76.6 °F /  24.8 °C 37.2 °F /  2.9 °C 30.02in /  1016.5hPa NNW 6.0mph /  9.7km/h 9.0mph /  14.5km/h 24% 0.00in /  0mm 747.0 W/m2
12:34 77.2 °F /  25.1 °C 37.6 °F /  3.1 °C 30.02in /  1016.5hPa North 0.9mph /  1.4km/h 4.0mph /  6.4km/h 24% 0.00in /  0mm 737.0 W/m2
12:40 76.8 °F /  24.9 °C 37.2 °F /  2.9 °C 30.02in /  1016.5hPa SE 0.9mph /  1.4km/h 2.0mph /  3.2km/h 24% 0.00in /  0mm 733.0 W/m2
12:47 76.5 °F /  24.7 °C 39.0 °F /  3.9 °C 30.02in /  1016.5hPa Calm   1.0mph /  1.6km/h 26% 0.00in /  0mm 733.0 W/m2
12:53 76.5 °F /  24.7 °C 37.0 °F /  2.8 °C 30.02in /  1016.5hPa WSW 2.9mph /  4.7km/h 8.0mph /  12.9km/h 24% 0.00in /  0mm 726.0 W/m2
12:59 76.5 °F /  24.7 °C 36.0 °F /  2.2 °C 30.01in /  1016.1hPa SSW 2.0mph /  3.2km/h 2.0mph /  3.2km/h 23% 0.00in /  0mm 721.0 W/m2
13:05 76.3 °F /  24.6 °C 35.8 °F /  2.1 °C 30.01in /  1016.1hPa Calm   3.0mph /  4.8km/h 23% 0.00in /  0mm 708.0 W/m2
13:11 76.6 °F /  24.8 °C 34.9 °F /  1.6 °C 30.01in /  1016.1hPa WNW 0.9mph /  1.4km/h 2.0mph /  3.2km/h 22% 0.00in /  0mm 700.0 W/m2
13:17 76.8 °F /  24.9 °C 36.1 °F /  2.3 °C 30.01in /  1016.1hPa Calm   1.0mph /  1.6km/h 23% 0.00in /  0mm 691.0 W/m2
13:23 77.4 °F /  25.2 °C 36.7 °F /  2.6 °C 30.01in /  1016.1hPa NNE 0.9mph /  1.4km/h 5.0mph /  8km/h 23% 0.00in /  0mm 682.0 W/m2
13:29 77.7 °F /  25.4 °C 35.8 °F /  2.1 °C 30.01in /  1016.1hPa SW 2.0mph /  3.2km/h 6.0mph /  9.7km/h 22% 0.00in /  0mm 668.0 W/m2
13:35 77.4 °F /  25.2 °C 36.7 °F /  2.6 °C 30.01in /  1016.1hPa SE 0.9mph /  1.4km/h 4.0mph /  6.4km/h 23% 0.00in /  0mm 657.0 W/m2
13:41 76.8 °F /  24.9 °C 36.1 °F /  2.3 °C 30.01in /  1016.1hPa Calm   2.0mph /  3.2km/h 23% 0.00in /  0mm 645.0 W/m2
13:47 77.2 °F /  25.1 °C 35.4 °F /  1.9 °C 30.01in /  1016.1hPa NNE 2.0mph /  3.2km/h 4.0mph /  6.4km/h 22% 0.00in /  0mm 635.0 W/m2
13:53 77.4 °F /  25.2 °C 36.7 °F /  2.6 °C 30.00in /  1015.8hPa Calm   2.0mph /  3.2km/h 23% 0.00in /  0mm 619.0 W/m2
14:00 77.4 °F /  25.2 °C 35.6 °F /  2 °C 30.00in /  1015.8hPa SW 3.0mph /  4.8km/h 3.0mph /  4.8km/h 22% 0.00in /  0mm 606.0 W/m2
14:06 77.5 °F /  25.3 °C 35.8 °F /  2.1 °C 30.00in /  1015.8hPa Calm   1.0mph /  1.6km/h 22% 0.00in /  0mm 596.0 W/m2
14:14 77.9 °F /  25.5 °C 36.0 °F /  2.2 °C 30.00in /  1015.8hPa NE 4.0mph /  6.4km/h 6.0mph /  9.7km/h 22% 0.00in /  0mm 582.0 W/m2
14:20 78.3 °F /  25.7 °C 36.3 °F /  2.4 °C 30.00in /  1015.8hPa SW 0.9mph /  1.4km/h 5.0mph /  8km/h 22% 0.00in /  0mm 571.0 W/m2
14:26 78.1 °F /  25.6 °C 34.9 °F /  1.6 °C 30.00in /  1015.8hPa Calm   4.0mph /  6.4km/h 21% 0.00in /  0mm 512.0 W/m2
14:33 78.1 °F /  25.6 °C 37.2 °F /  2.9 °C 29.99in /  1015.5hPa Calm   2.0mph /  3.2km/h 23% 0.00in /  0mm 534.0 W/m2
14:39 78.3 °F /  25.7 °C 36.3 °F /  2.4 °C 29.99in /  1015.5hPa Calm   2.0mph /  3.2km/h 22% 0.00in /  0mm 529.0 W/m2
14:45 78.4 °F /  25.8 °C 36.5 °F /  2.5 °C 29.99in /  1015.5hPa Calm   4.0mph /  6.4km/h 22% 0.00in /  0mm 515.0 W/m2
14:51 78.4 °F /  25.8 °C 36.5 °F /  2.5 °C 29.99in /  1015.5hPa Calm   4.0mph /  6.4km/h 22% 0.00in /  0mm 496.0 W/m2
14:57 78.4 °F /  25.8 °C 36.5 °F /  2.5 °C 29.99in /  1015.5hPa NNW 4.9mph /  7.9km/h 6.0mph /  9.7km/h 22% 0.00in /  0mm 487.0 W/m2
15:03 78.6 °F /  25.9 °C 36.7 °F /  2.6 °C 29.99in /  1015.5hPa Calm   1.0mph /  1.6km/h 22% 0.00in /  0mm 478.0 W/m2
15:09 78.6 °F /  25.9 °C 37.8 °F /  3.2 °C 29.99in /  1015.5hPa WNW 0.9mph /  1.4km/h 1.0mph /  1.6km/h 23% 0.00in /  0mm 461.0 W/m2
15:15 78.8 °F /  26 °C 37.9 °F /  3.3 °C 29.99in /  1015.5hPa WNW 2.0mph /  3.2km/h 3.0mph /  4.8km/h 23% 0.00in /  0mm 438.0 W/m2
15:21 78.6 °F /  25.9 °C 37.8 °F /  3.2 °C 29.99in /  1015.5hPa West 2.0mph /  3.2km/h 3.0mph /  4.8km/h 23% 0.00in /  0mm 387.0 W/m2
15:28 78.1 °F /  25.6 °C 37.2 °F /  2.9 °C 29.98in /  1015.1hPa Calm   1.0mph /  1.6km/h 23% 0.00in /  0mm 352.0 W/m2
15:34 77.7 °F /  25.4 °C 37.0 °F /  2.8 °C 29.98in /  1015.1hPa WSW 0.9mph /  1.4km/h 3.0mph /  4.8km/h 23% 0.00in /  0mm 330.0 W/m2
15:40 77.2 °F /  25.1 °C 36.5 °F /  2.5 °C 29.98in /  1015.1hPa WNW 2.0mph /  3.2km/h 3.0mph /  4.8km/h 23% 0.00in /  0mm 74.0 W/m2
15:46 76.3 °F /  24.6 °C 35.8 °F /  2.1 °C 29.98in /  1015.1hPa Calm     23% 0.00in /  0mm 65.0 W/m2
15:52 75.9 °F /  24.4 °C 36.5 °F /  2.5 °C 29.98in /  1015.1hPa SW 0.9mph /  1.4km/h 3.0mph /  4.8km/h 24% 0.00in /  0mm 40.0 W/m2
15:58 75.4 °F /  24.1 °C 37.0 °F /  2.8 °C 29.98in /  1015.1hPa SW 0.9mph /  1.4km/h 2.0mph /  3.2km/h 25% 0.00in /  0mm 46.0 W/m2
16:04 74.8 °F /  23.8 °C 37.6 °F /  3.1 °C 29.98in /  1015.1hPa SW 2.9mph /  4.7km/h 3.0mph /  4.8km/h 26% 0.00in /  0mm 40.0 W/m2
16:10 74.7 °F /  23.7 °C 37.6 °F /  3.1 °C 29.98in /  1015.1hPa Calm   1.0mph /  1.6km/h 26% 0.00in /  0mm 33.0 W/m2
16:19 74.3 °F /  23.5 °C 38.1 °F /  3.4 °C 29.98in /  1015.1hPa West 2.0mph /  3.2km/h 3.0mph /  4.8km/h 27% 0.00in /  0mm 32.0 W/m2
16:25 74.1 °F /  23.4 °C 37.9 °F /  3.3 °C 29.98in /  1015.1hPa Calm     27% 0.00in /  0mm 33.0 W/m2
16:31 73.9 °F /  23.3 °C 36.9 °F /  2.7 °C 29.98in /  1015.1hPa Calm   3.0mph /  4.8km/h 26% 0.00in /  0mm 28.0 W/m2
16:37 73.8 °F /  23.2 °C 37.8 °F /  3.2 °C 29.98in /  1015.1hPa Calm   2.0mph /  3.2km/h 27% 0.00in /  0mm 30.0 W/m2
16:43 73.4 °F /  23 °C 37.4 °F /  3 °C 29.98in /  1015.1hPa Calm   1.0mph /  1.6km/h 27% 0.00in /  0mm 26.0 W/m2
16:49 73.0 °F /  22.8 °C 39.7 °F /  4.3 °C 29.99in /  1015.5hPa Calm     30% 0.00in /  0mm 25.0 W/m2
16:55 72.9 °F /  22.7 °C 37.8 °F /  3.2 °C 29.99in /  1015.5hPa Calm     28% 0.00in /  0mm 19.0 W/m2
17:01 72.3 °F /  22.4 °C 38.3 °F /  3.5 °C 29.99in /  1015.5hPa WSW 0.9mph /  1.4km/h 1.0mph /  1.6km/h 29% 0.00in /  0mm 16.0 W/m2
17:07 72.0 °F /  22.2 °C 38.8 °F /  3.8 °C 29.99in /  1015.5hPa Calm   1.0mph /  1.6km/h 30% 0.00in /  0mm 14.0 W/m2
17:13 71.6 °F /  22 °C 39.4 °F /  4.1 °C 29.99in /  1015.5hPa Calm     31% 0.00in /  0mm 11.0 W/m2
17:19 71.2 °F /  21.8 °C 39.9 °F /  4.4 °C 30.00in /  1015.8hPa Calm     32% 0.00in /  0mm 0.0 W/m2
17:25 70.9 °F /  21.6 °C 39.6 °F /  4.2 °C 30.00in /  1015.8hPa Calm     32% 0.00in /  0mm 0.0 W/m2
17:32 70.3 °F /  21.3 °C 39.9 °F /  4.4 °C 30.00in /  1015.8hPa Calm   1.0mph /  1.6km/h 33% 0.00in /  0mm 0.0 W/m2
17:38 70.0 °F /  21.1 °C 40.3 °F /  4.6 °C 30.00in /  1015.8hPa Calm     34% 0.00in /  0mm 0.0 W/m2
17:44 69.3 °F /  20.7 °C 40.5 °F /  4.7 °C 30.00in /  1015.8hPa Calm     35% 0.00in /  0mm 0.0 W/m2
17:50 68.7 °F /  20.4 °C 40.6 °F /  4.8 °C 30.00in /  1015.8hPa Calm     36% 0.00in /  0mm 0.0 W/m2
17:56 68.2 °F /  20.1 °C 40.3 °F /  4.6 °C 30.01in /  1016.1hPa Calm   1.0mph /  1.6km/h 36% 0.00in /  0mm 0.0 W/m2
18:02 67.6 °F /  19.8 °C 39.7 °F /  4.3 °C 30.01in /  1016.1hPa Calm   1.0mph /  1.6km/h 36% 0.00in /  0mm 0.0 W/m2
18:08 67.5 °F /  19.7 °C 39.6 °F /  4.2 °C 30.01in /  1016.1hPa SE 2.0mph /  3.2km/h 2.0mph /  3.2km/h 36% 0.00in /  0mm 0.0 W/m2
18:15 67.1 °F /  19.5 °C 39.9 °F /  4.4 °C 30.01in /  1016.1hPa Calm   1.0mph /  1.6km/h 37% 0.00in /  0mm 0.0 W/m2
18:21 66.9 °F /  19.4 °C 39.7 °F /  4.3 °C 30.02in /  1016.5hPa Calm   1.0mph /  1.6km/h 37% 0.00in /  0mm 0.0 W/m2
18:27 66.6 °F /  19.2 °C 40.1 °F /  4.5 °C 30.01in /  1016.1hPa Calm     38% 0.00in /  0mm 0.0 W/m2
18:33 66.4 °F /  19.1 °C 39.4 °F /  4.1 °C 30.02in /  1016.5hPa SE 0.9mph /  1.4km/h 1.0mph /  1.6km/h 37% 0.00in /  0mm 0.0 W/m2
18:39 66.2 °F /  19 °C 39.9 °F /  4.4 °C 30.02in /  1016.5hPa Calm     38% 0.00in /  0mm 0.0 W/m2
18:45 66.0 °F /  18.9 °C 39.7 °F /  4.3 °C 30.03in /  1016.8hPa Calm   1.0mph /  1.6km/h 38% 0.00in /  0mm 0.0 W/m2
18:52 65.7 °F /  18.7 °C 39.4 °F /  4.1 °C 30.03in /  1016.8hPa Calm   3.0mph /  4.8km/h 38% 0.00in /  0mm 0.0 W/m2
18:58 65.5 °F /  18.6 °C 39.9 °F /  4.4 °C 30.03in /  1016.8hPa Calm   1.0mph /  1.6km/h 39% 0.00in /  0mm 0.0 W/m2
19:04 65.1 °F /  18.4 °C 39.6 °F /  4.2 °C 30.03in /  1016.8hPa Calm   1.0mph /  1.6km/h 39% 0.00in /  0mm 0.0 W/m2
19:10 64.9 °F /  18.3 °C 39.4 °F /  4.1 °C 30.03in /  1016.8hPa Calm     39% 0.00in /  0mm 0.0 W/m2
19:16 64.6 °F /  18.1 °C 39.7 °F /  4.3 °C 30.03in /  1016.8hPa Calm     40% 0.00in /  0mm 0.0 W/m2
19:22 64.2 °F /  17.9 °C 39.4 °F /  4.1 °C 30.03in /  1016.8hPa Calm     40% 0.00in /  0mm 0.0 W/m2
19:28 63.9 °F /  17.7 °C 39.7 °F /  4.3 °C 30.03in /  1016.8hPa Calm     41% 0.00in /  0mm 0.0 W/m2
19:35 63.3 °F /  17.4 °C 39.9 °F /  4.4 °C 30.03in /  1016.8hPa Calm     42% 0.00in /  0mm 0.0 W/m2
19:41 63.0 °F /  17.2 °C 39.6 °F /  4.2 °C 30.03in /  1016.8hPa Calm     42% 0.00in /  0mm 0.0 W/m2
19:47 62.4 °F /  16.9 °C 39.6 °F /  4.2 °C 30.03in /  1016.8hPa Calm     43% 0.00in /  0mm 0.0 W/m2
19:53 61.9 °F /  16.6 °C 39.7 °F /  4.3 °C 30.03in /  1016.8hPa Calm     44% 0.00in /  0mm 0.0 W/m2
19:59 61.5 °F /  16.4 °C 39.4 °F /  4.1 °C 30.03in /  1016.8hPa Calm   1.0mph /  1.6km/h 44% 0.00in /  0mm 0.0 W/m2
20:05 61.2 °F /  16.2 °C 39.0 °F /  3.9 °C 30.03in /  1016.8hPa Calm     44% 0.00in /  0mm 0.0 W/m2
20:11 60.6 °F /  15.9 °C 39.2 °F /  4 °C 30.04in /  1017.2hPa Calm   1.0mph /  1.6km/h 45% 0.00in /  0mm 0.0 W/m2
20:18 60.4 °F /  15.8 °C 39.0 °F /  3.9 °C 30.03in /  1016.8hPa Calm   1.0mph /  1.6km/h 45% 0.00in /  0mm 0.0 W/m2
20:24 60.3 °F /  15.7 °C 39.4 °F /  4.1 °C 30.03in /  1016.8hPa Calm     46% 0.00in /  0mm 0.0 W/m2
20:30 60.1 °F /  15.6 °C 39.2 °F /  4 °C 30.04in /  1017.2hPa Calm   1.0mph /  1.6km/h 46% 0.00in /  0mm 0.0 W/m2
20:36 59.7 °F /  15.4 °C 38.8 °F /  3.8 °C 30.03in /  1016.8hPa Calm     46% 0.00in /  0mm 0.0 W/m2
20:42 59.7 °F /  15.4 °C 38.8 °F /  3.8 °C 30.04in /  1017.2hPa Calm   1.0mph /  1.6km/h 46% 0.00in /  0mm 0.0 W/m2
20:48 59.5 °F /  15.3 °C 38.7 °F /  3.7 °C 30.04in /  1017.2hPa ENE 2.9mph /  4.7km/h 3.0mph /  4.8km/h 46% 0.00in /  0mm 0.0 W/m2
20:54 59.7 °F /  15.4 °C 38.8 °F /  3.8 °C 30.04in /  1017.2hPa SE 2.0mph /  3.2km/h 2.0mph /  3.2km/h 46% 0.00in /  0mm 0.0 W/m2
21:00 59.7 °F /  15.4 °C 38.3 °F /  3.5 °C 30.04in /  1017.2hPa Calm   1.0mph /  1.6km/h 45% 0.00in /  0mm 0.0 W/m2
21:07 59.7 °F /  15.4 °C 38.3 °F /  3.5 °C 30.04in /  1017.2hPa Calm   1.0mph /  1.6km/h 45% 0.00in /  0mm 0.0 W/m2
21:13 59.5 °F /  15.3 °C 38.1 °F /  3.4 °C 30.04in /  1017.2hPa Calm   1.0mph /  1.6km/h 45% 0.00in /  0mm 0.0 W/m2
21:19 59.5 °F /  15.3 °C 38.1 °F /  3.4 °C 30.04in /  1017.2hPa Calm   1.0mph /  1.6km/h 45% 0.00in /  0mm 0.0 W/m2
21:25 59.4 °F /  15.2 °C 38.7 °F /  3.7 °C 30.04in /  1017.2hPa Calm   1.0mph /  1.6km/h 46% 0.00in /  0mm 0.0 W/m2
21:31 59.2 °F /  15.1 °C 38.5 °F /  3.6 °C 30.05in /  1017.5hPa Calm   1.0mph /  1.6km/h 46% 0.00in /  0mm 0.0 W/m2
21:37 59.0 °F /  15 °C 38.3 °F /  3.5 °C 30.05in /  1017.5hPa Calm   2.0mph /  3.2km/h 46% 0.00in /  0mm 0.0 W/m2
21:43 58.8 °F /  14.9 °C 38.1 °F /  3.4 °C 30.05in /  1017.5hPa Calm   1.0mph /  1.6km/h 46% 0.00in /  0mm 0.0 W/m2
21:49 58.6 °F /  14.8 °C 37.9 °F /  3.3 °C 30.05in /  1017.5hPa Calm   2.0mph /  3.2km/h 46% 0.00in /  0mm 0.0 W/m2
21:56 58.5 °F /  14.7 °C 38.3 °F /  3.5 °C 30.05in /  1017.5hPa East 2.0mph /  3.2km/h 3.0mph /  4.8km/h 47% 0.00in /  0mm 0.0 W/m2
22:02 58.5 °F /  14.7 °C 38.3 °F /  3.5 °C 30.05in /  1017.5hPa East 0.9mph /  1.4km/h 4.0mph /  6.4km/h 47% 0.00in /  0mm 0.0 W/m2
22:08 58.3 °F /  14.6 °C 38.1 °F /  3.4 °C 30.05in /  1017.5hPa Calm   1.0mph /  1.6km/h 47% 0.00in /  0mm 0.0 W/m2
22:16 57.9 °F /  14.4 °C 37.8 °F /  3.2 °C 30.05in /  1017.5hPa Calm   1.0mph /  1.6km/h 47% 0.00in /  0mm 0.0 W/m2
22:22 57.9 °F /  14.4 °C 38.3 °F /  3.5 °C 30.05in /  1017.5hPa Calm     48% 0.00in /  0mm 0.0 W/m2
22:28 57.7 °F /  14.3 °C 38.1 °F /  3.4 °C 30.05in /  1017.5hPa Calm   1.0mph /  1.6km/h 48% 0.00in /  0mm 0.0 W/m2
22:34 57.6 °F /  14.2 °C 37.9 °F /  3.3 °C 30.05in /  1017.5hPa East 0.9mph /  1.4km/h 2.0mph /  3.2km/h 48% 0.00in /  0mm 0.0 W/m2
22:41 57.6 °F /  14.2 °C 37.9 °F /  3.3 °C 30.06in /  1017.8hPa Calm   1.0mph /  1.6km/h 48% 0.00in /  0mm 0.0 W/m2
22:47 57.4 °F /  14.1 °C 37.9 °F /  3.3 °C 30.06in /  1017.8hPa Calm     48% 0.00in /  0mm 0.0 W/m2
22:53 57.2 °F /  14 °C 37.8 °F /  3.2 °C 30.06in /  1017.8hPa Calm   1.0mph /  1.6km/h 48% 0.00in /  0mm 0.0 W/m2
22:59 57.2 °F /  14 °C 38.3 °F /  3.5 °C 30.06in /  1017.8hPa Calm   1.0mph /  1.6km/h 49% 0.00in /  0mm 0.0 W/m2
23:05 57.0 °F /  13.9 °C 38.1 °F /  3.4 °C 30.06in /  1017.8hPa Calm     49% 0.00in /  0mm 0.0 W/m2
23:11 57.0 °F /  13.9 °C 38.1 °F /  3.4 °C 30.05in /  1017.5hPa Calm   2.0mph /  3.2km/h 49% 0.00in /  0mm 0.0 W/m2
23:17 56.8 °F /  13.8 °C 37.9 °F /  3.3 °C 30.05in /  1017.5hPa Calm   1.0mph /  1.6km/h 49% 0.00in /  0mm 0.0 W/m2
23:23 56.7 °F /  13.7 °C 38.3 °F /  3.5 °C 30.05in /  1017.5hPa Calm     50% 0.00in /  0mm 0.0 W/m2
23:29 56.5 °F /  13.6 °C 38.1 °F /  3.4 °C 30.05in /  1017.5hPa Calm   1.0mph /  1.6km/h 50% 0.00in /  0mm 0.0 W/m2
23:36 56.3 °F /  13.5 °C 38.5 °F /  3.6 °C 30.05in /  1017.5hPa Calm     51% 0.00in /  0mm 0.0 W/m2
23:42 56.1 °F /  13.4 °C 38.3 °F /  3.5 °C 30.04in /  1017.2hPa East 0.9mph /  1.4km/h 1.0mph /  1.6km/h 51% 0.00in /  0mm 0.0 W/m2
23:48 55.9 °F /  13.3 °C 38.1 °F /  3.4 °C 30.04in /  1017.2hPa Calm     51% 0.00in /  0mm 0.0 W/m2
23:54 55.8 °F /  13.2 °C 37.9 °F /  3.3 °C 30.04in /  1017.2hPa Calm     51% 0.00in /  0mm 0.0 W/m2
Olympia, Windhoek, Namibia
Compliments of Weather Underground - 3 mb